Main page
METAR-TAF:

METAR-TAF

Airports :

Farnborough Airport

Farnborough, England

latitude: 51-17N, longitude: 000-46W, elevation: 65 m

Current weather observation

The report was made 39 minutes ago, at 22:50 UTC
Wind 6 kt from the Southwest
Temperature 9°C
Humidity 87%
Pressure 1028 hPa
Visibility: 8000 m

METAR: EGLF 222250Z AUTO 23006KT 8000 OVC026/// 09/07 Q1028

Time: 23:29 (23:29 UTC)

Forecast

The report was made 3 hours and 23 minutes ago, at 20:06 UTC
Forecast valid from 22 at 21 UTC to 22 at 23 UTC
Wind 6 kt from the Southwest
Visibility 10 km or more
Broken clouds at a height of 2000 ft

TAF: EGLF 222006Z 2221/2223 22006KT 9999 BKN020

Weather observations and forecasts of more than 4000 airports (METAR and TAF reports).

The available stations are represented by yellow and red dots on the map.

Hover mouse over dot to see the name of the station.

Then click to see weather observations and forecasts.

To change the map : click on the green buttons with a black cross to zoom in, on the green button with a dash to zoom out, or on the green arrows for adjacent maps.


METAR-TAF: